createdAt,value
2023-01-09T00:02:10.685Z,11.68
2023-01-09T00:05:16.066Z,11.52
2023-01-09T00:08:19.312Z,11.30
2023-01-09T00:11:21.823Z,11.55
2023-01-09T00:14:24.347Z,12.23
2023-01-09T00:17:27.051Z,12.60
2023-01-09T00:20:29.486Z,12.47
2023-01-09T00:23:32.129Z,12.10
2023-01-09T00:26:34.648Z,11.68
2023-01-09T00:29:39.021Z,11.80
2023-01-09T00:32:41.419Z,11.50
2023-01-09T00:35:43.829Z,12.00
2023-01-09T00:38:46.536Z,11.68
2023-01-09T00:41:53.183Z,11.20
2023-01-09T00:45:02.652Z,12.18
2023-01-09T00:48:12.104Z,10.80
2023-01-09T00:51:15.025Z,11.47
2023-01-09T00:54:19.251Z,11.20
2023-01-09T00:57:21.719Z,10.57
2023-01-09T01:00:24.313Z,11.03
2023-01-09T01:03:26.822Z,11.05
2023-01-09T01:06:47.579Z,11.82
2023-01-09T01:09:49.967Z,11.23
2023-01-09T01:12:53.126Z,11.20
2023-01-09T01:15:55.497Z,12.07
2023-01-09T01:18:57.950Z,10.88
2023-01-09T01:22:00.373Z,11.33
2023-01-09T01:25:04.139Z,11.30
2023-01-09T01:28:07.347Z,10.70
2023-01-09T01:31:16.937Z,11.03
2023-01-09T01:34:19.620Z,12.20
2023-01-09T01:37:22.898Z,11.13
2023-01-09T01:40:25.709Z,12.25
2023-01-09T01:43:28.808Z,12.00
2023-01-09T01:46:32.833Z,11.35
2023-01-09T01:49:35.358Z,11.95
2023-01-09T01:52:38.436Z,11.27
2023-01-09T01:56:17.114Z,11.90
2023-01-09T01:59:25.184Z,10.88
2023-01-09T02:02:31.130Z,11.03
2023-01-09T02:05:35.137Z,10.43
2023-01-09T02:08:37.881Z,10.25
2023-01-09T02:11:48.542Z,10.80
2023-01-09T02:15:05.286Z,10.43
2023-01-09T02:18:25.649Z,9.30
2023-01-09T02:21:42.813Z,10.13
2023-01-09T02:25:16.797Z,10.37
2023-01-09T02:29:00.820Z,10.55
2023-01-09T02:32:18.228Z,9.60
2023-01-09T02:35:28.329Z,10.10
2023-01-09T02:38:48.965Z,9.77
2023-01-09T02:42:04.201Z,8.63
2023-01-09T02:45:06.802Z,9.75
2023-01-09T02:48:11.513Z,9.40
2023-01-09T02:51:24.298Z,9.07
2023-01-09T02:55:09.856Z,8.57
2023-01-09T02:58:22.567Z,8.10
2023-01-09T03:01:48.136Z,8.93
2023-01-09T03:05:01.874Z,7.95
2023-01-09T03:08:10.280Z,8.37
2023-01-09T03:11:13.017Z,8.15
2023-01-09T03:14:20.897Z,8.25
2023-01-09T03:17:32.527Z,8.18
2023-01-09T03:20:35.480Z,7.97
2023-01-09T03:23:58.183Z,8.23
2023-01-09T03:27:00.754Z,9.38
2023-01-09T03:30:03.348Z,8.70
2023-01-09T03:33:07.401Z,8.60
2023-01-09T03:36:11.356Z,10.05
2023-01-09T03:39:13.744Z,8.13
2023-01-09T03:42:16.629Z,7.70
2023-01-09T03:45:19.354Z,7.68
2023-01-09T03:48:21.913Z,8.35
2023-01-09T03:51:24.408Z,8.23
2023-01-09T03:54:26.826Z,8.65
2023-01-09T03:57:29.262Z,8.45
2023-01-09T04:00:31.810Z,7.97
2023-01-09T04:03:34.271Z,8.60
2023-01-09T04:06:36.668Z,8.82
2023-01-09T04:09:39.024Z,8.13
2023-01-09T04:12:41.341Z,8.65
2023-01-09T04:15:44.130Z,6.95
2023-01-09T04:18:46.533Z,7.75
2023-01-09T04:21:48.881Z,8.52
2023-01-09T04:24:51.303Z,8.27
2023-01-09T04:27:53.770Z,9.48
2023-01-09T04:30:56.224Z,8.77
2023-01-09T04:33:58.610Z,11.40
2023-01-09T04:37:01.092Z,10.27
2023-01-09T04:40:08.895Z,8.60
2023-01-09T04:43:11.263Z,8.82
2023-01-09T04:46:13.746Z,8.88
2023-01-09T04:49:16.299Z,8.50
2023-01-09T04:52:19.999Z,8.18
2023-01-09T04:55:22.609Z,10.23
2023-01-09T04:58:24.968Z,9.55
2023-01-09T05:01:28.027Z,9.93
2023-01-09T05:04:30.627Z,9.80
2023-01-09T05:07:33.609Z,15.88
2023-01-09T05:10:36.104Z,14.10
2023-01-09T05:13:38.462Z,14.23
2023-01-09T05:16:40.988Z,11.98
2023-01-09T05:19:45.531Z,11.32
2023-01-09T05:22:47.967Z,12.50
2023-01-09T05:25:50.445Z,13.27
2023-01-09T05:28:59.121Z,9.35
2023-01-09T05:32:01.546Z,9.80
2023-01-09T05:35:04.198Z,8.73
2023-01-09T05:38:06.557Z,8.07
2023-01-09T05:41:09.402Z,8.77
2023-01-09T05:44:14.958Z,8.52
2023-01-09T05:47:17.385Z,8.52
2023-01-09T05:50:19.873Z,8.07
2023-01-09T05:53:22.329Z,8.85
2023-01-09T05:56:24.781Z,8.55
2023-01-09T05:59:27.189Z,9.63
2023-01-09T06:02:29.998Z,9.77
2023-01-09T06:05:32.784Z,10.23
2023-01-09T06:08:35.238Z,8.63
2023-01-09T06:11:38.595Z,8.80
2023-01-09T06:14:41.068Z,9.15
2023-01-09T06:17:43.664Z,9.05
2023-01-09T06:20:46.146Z,9.10
2023-01-09T06:23:48.565Z,9.75
2023-01-09T06:26:50.896Z,9.35
2023-01-09T06:29:53.571Z,9.93
2023-01-09T06:32:55.952Z,9.57
2023-01-09T06:35:58.320Z,12.05
2023-01-09T06:39:01.018Z,12.15
2023-01-09T06:42:03.828Z,8.87
2023-01-09T06:45:06.798Z,10.13
2023-01-09T06:48:10.147Z,9.48
2023-01-09T06:51:12.499Z,7.97
2023-01-09T06:54:14.902Z,9.75
2023-01-09T06:57:17.266Z,9.73
2023-01-09T07:00:20.053Z,10.07
2023-01-09T07:03:22.742Z,9.97
2023-01-09T07:06:25.733Z,10.55
2023-01-09T07:09:29.734Z,9.90
2023-01-09T07:12:33.837Z,10.20
2023-01-09T07:15:37.542Z,11.85
2023-01-09T07:18:40.978Z,12.55
2023-01-09T07:21:44.134Z,12.90
2023-01-09T07:24:47.495Z,14.70
2023-01-09T07:27:49.962Z,14.20
2023-01-09T07:30:52.803Z,13.77
2023-01-09T07:33:55.218Z,14.27
2023-01-09T07:36:57.586Z,13.52
2023-01-09T07:40:00.281Z,15.55
2023-01-09T07:43:03.144Z,13.67
2023-01-09T07:46:05.725Z,17.40
2023-01-09T07:49:08.549Z,18.60
2023-01-09T07:52:11.021Z,15.88
2023-01-09T07:55:15.586Z,16.40
2023-01-09T07:58:19.151Z,14.30
2023-01-09T08:01:21.889Z,12.20
2023-01-09T08:04:25.092Z,12.53
2023-01-09T08:07:28.491Z,12.52
2023-01-09T08:10:32.109Z,12.63
2023-01-09T08:13:35.212Z,14.17
2023-01-09T08:16:37.605Z,14.48
2023-01-09T08:19:40.498Z,17.90
2023-01-09T08:22:44.128Z,17.27
2023-01-09T08:25:46.536Z,21.65
2023-01-09T08:28:48.977Z,12.73
2023-01-09T08:31:51.494Z,10.45
2023-01-09T08:34:54.273Z,9.80
2023-01-09T08:37:56.809Z,12.57
2023-01-09T08:40:59.257Z,12.02
2023-01-09T08:44:19.927Z,12.03
2023-01-09T08:47:24.324Z,10.38
2023-01-09T08:50:27.253Z,10.15
2023-01-09T08:53:31.611Z,9.00
2023-01-09T08:56:34.024Z,8.90
2023-01-09T08:59:37.306Z,8.48
2023-01-09T09:02:40.209Z,10.15
2023-01-09T09:05:44.675Z,11.97
2023-01-09T09:08:49.056Z,11.32
2023-01-09T09:11:51.803Z,17.90
2023-01-09T09:15:12.989Z,22.03
2023-01-09T09:18:15.657Z,23.05
2023-01-09T09:21:18.377Z,11.25
2023-01-09T09:24:20.967Z,10.35
2023-01-09T09:27:23.409Z,11.57
2023-01-09T09:30:25.934Z,11.25
2023-01-09T09:33:28.930Z,12.20
2023-01-09T09:36:31.382Z,9.80
2023-01-09T09:39:34.006Z,8.77
2023-01-09T09:43:12.262Z,8.02
2023-01-09T09:46:40.846Z,8.03
2023-01-09T09:50:06.056Z,7.05
2023-01-09T09:53:24.461Z,7.75
2023-01-09T09:56:31.247Z,7.70
2023-01-09T09:59:37.743Z,7.28
2023-01-09T10:02:52.023Z,7.97
2023-01-09T10:05:55.726Z,8.98
2023-01-09T10:09:02.604Z,8.13
2023-01-09T10:12:08.232Z,7.72
2023-01-09T10:15:19.730Z,8.30
2023-01-09T10:18:36.015Z,7.10
2023-01-09T10:21:48.659Z,8.23
2023-01-09T10:25:02.582Z,7.85
2023-01-09T10:28:38.492Z,8.50
2023-01-09T10:32:02.483Z,9.18
2023-01-09T10:35:42.804Z,9.18
2023-01-09T10:38:53.059Z,8.25
2023-01-09T10:41:55.470Z,7.93
2023-01-09T10:45:05.799Z,8.70
2023-01-09T10:48:26.450Z,9.70
2023-01-09T10:51:38.827Z,9.17
2023-01-09T10:54:49.437Z,8.75
2023-01-09T10:57:59.718Z,9.30
2023-01-09T11:01:03.201Z,8.13
2023-01-09T11:04:29.472Z,7.28
2023-01-09T11:07:43.316Z,7.43
2023-01-09T11:10:48.035Z,10.07
2023-01-09T11:14:27.672Z,9.40
2023-01-09T11:17:30.034Z,14.15
2023-01-09T11:20:32.467Z,12.35
2023-01-09T11:23:34.983Z,7.40
2023-01-09T11:26:37.409Z,8.38
2023-01-09T11:29:41.222Z,9.98
2023-01-09T11:32:45.595Z,11.50
2023-01-09T11:36:04.760Z,7.05
2023-01-09T11:39:29.431Z,7.20
2023-01-09T11:42:50.585Z,9.48
2023-01-09T11:46:01.659Z,7.33
2023-01-09T11:49:24.209Z,8.07
2023-01-09T11:52:26.749Z,6.85
2023-01-09T11:55:38.051Z,7.93
2023-01-09T11:58:45.129Z,6.78
2023-01-09T12:02:05.679Z,6.03
2023-01-09T12:05:20.675Z,6.00
2023-01-09T12:08:39.525Z,6.70
2023-01-09T12:11:55.265Z,6.75
2023-01-09T12:14:57.752Z,5.88
2023-01-09T12:18:23.671Z,6.37
2023-01-09T12:21:35.196Z,6.50
2023-01-09T12:24:51.437Z,7.43
2023-01-09T12:28:31.282Z,6.43
2023-01-09T12:31:55.297Z,6.78
2023-01-09T12:35:19.683Z,8.75
2023-01-09T12:38:22.368Z,8.85
2023-01-09T12:41:50.761Z,8.57
2023-01-09T12:45:08.859Z,6.40
2023-01-09T12:48:29.323Z,7.43
2023-01-09T12:51:38.756Z,6.67
2023-01-09T12:54:41.161Z,7.70
2023-01-09T12:57:53.217Z,7.32
2023-01-09T13:00:58.597Z,6.33
2023-01-09T13:04:18.322Z,6.53
2023-01-09T13:07:26.398Z,7.70
2023-01-09T13:10:33.298Z,6.75
2023-01-09T13:13:58.709Z,7.95
2023-01-09T13:17:06.186Z,9.20
2023-01-09T13:20:42.862Z,10.23
2023-01-09T13:23:54.252Z,10.90
2023-01-09T13:27:03.376Z,11.15
2023-01-09T13:30:22.626Z,10.32
2023-01-09T13:33:35.474Z,10.60
2023-01-09T13:36:40.101Z,9.10
2023-01-09T13:39:42.571Z,9.35
2023-01-09T13:42:56.547Z,9.60
2023-01-09T13:45:58.967Z,9.07
2023-01-09T13:49:02.109Z,12.05
2023-01-09T13:52:26.112Z,13.32
2023-01-09T13:55:35.597Z,11.80
2023-01-09T13:58:38.182Z,13.07
2023-01-09T14:01:42.542Z,14.95
2023-01-09T14:04:45.278Z,13.50
2023-01-09T14:07:49.941Z,13.20
2023-01-09T14:10:59.665Z,11.32
2023-01-09T14:14:04.531Z,11.63
2023-01-09T14:17:17.259Z,9.73
2023-01-09T14:20:33.834Z,10.50
2023-01-09T14:23:51.413Z,13.55
2023-01-09T14:26:58.342Z,12.47
2023-01-09T14:30:22.579Z,8.40
2023-01-09T14:33:35.840Z,13.65
2023-01-09T14:36:38.413Z,12.97
2023-01-09T14:39:45.935Z,11.63
2023-01-09T14:42:53.856Z,14.50
2023-01-09T14:46:04.165Z,16.35
2023-01-09T14:49:15.685Z,15.75
2023-01-09T14:52:30.725Z,16.58
2023-01-09T14:55:42.322Z,17.73
2023-01-09T14:58:44.664Z,15.70
2023-01-09T15:01:51.565Z,17.58
2023-01-09T15:04:57.074Z,22.05
2023-01-09T15:08:03.523Z,24.10
2023-01-09T15:11:06.217Z,23.65
2023-01-09T15:14:24.377Z,21.17
2023-01-09T15:17:36.641Z,19.55
2023-01-09T15:20:39.097Z,20.33
2023-01-09T15:23:41.512Z,22.48
2023-01-09T15:26:55.798Z,23.20
2023-01-09T15:30:16.814Z,20.13
2023-01-09T15:33:19.334Z,18.50
2023-01-09T15:36:27.559Z,17.50
2023-01-09T15:39:36.133Z,19.73
2023-01-09T15:42:58.113Z,20.02
2023-01-09T15:46:01.531Z,19.80
2023-01-09T15:49:04.169Z,18.20
2023-01-09T15:52:11.849Z,20.67
2023-01-09T15:55:35.093Z,35.38
2023-01-09T15:58:40.012Z,25.27
2023-01-09T16:01:44.859Z,21.37
2023-01-09T16:04:48.940Z,20.60
2023-01-09T16:07:51.905Z,22.33
2023-01-09T16:11:04.090Z,23.73
2023-01-09T16:14:34.705Z,33.35
2023-01-09T16:17:37.732Z,45.53
2023-01-09T16:20:40.190Z,27.85
2023-01-09T16:23:51.907Z,23.95
2023-01-09T16:27:23.926Z,23.70
2023-01-09T16:30:27.788Z,27.98
2023-01-09T16:33:31.494Z,27.23
2023-01-09T16:36:35.630Z,32.80
2023-01-09T16:39:38.793Z,35.42
2023-01-09T16:42:59.563Z,29.03
2023-01-09T16:46:02.010Z,29.80
2023-01-09T16:49:14.040Z,32.85
2023-01-09T16:52:17.529Z,31.35
2023-01-09T16:55:19.946Z,27.92
2023-01-09T16:58:28.745Z,29.02
2023-01-09T17:01:31.224Z,32.08
2023-01-09T17:04:33.657Z,29.17
2023-01-09T17:07:37.840Z,29.48
2023-01-09T17:10:40.170Z,28.45
2023-01-09T17:13:42.591Z,29.00
2023-01-09T17:16:47.630Z,27.95
2023-01-09T17:19:50.427Z,29.13
2023-01-09T17:22:52.795Z,28.13
2023-01-09T17:26:17.134Z,27.83
2023-01-09T17:29:20.061Z,30.23
2023-01-09T17:32:22.468Z,27.67
2023-01-09T17:35:24.798Z,27.47
2023-01-09T17:38:27.203Z,28.42
2023-01-09T17:41:31.649Z,27.90
2023-01-09T17:44:34.240Z,29.13
2023-01-09T17:47:36.675Z,27.70
2023-01-09T17:50:39.156Z,29.40
2023-01-09T17:53:41.502Z,27.33
2023-01-09T17:56:48.962Z,24.40
2023-01-09T17:59:51.348Z,25.80
2023-01-09T18:02:54.905Z,25.20
2023-01-09T18:05:57.425Z,25.27
2023-01-09T18:08:59.841Z,22.27
2023-01-09T18:12:03.294Z,19.45
2023-01-09T18:15:06.271Z,19.00
2023-01-09T18:18:08.774Z,22.70
2023-01-09T18:21:15.659Z,23.58
2023-01-09T18:24:17.989Z,22.67
2023-01-09T18:27:20.592Z,21.45
2023-01-09T18:30:23.129Z,19.13
2023-01-09T18:33:25.514Z,23.00
2023-01-09T18:36:30.014Z,20.05
2023-01-09T18:39:32.876Z,22.30
2023-01-09T18:42:35.345Z,19.33
2023-01-09T18:45:38.860Z,23.13
2023-01-09T18:48:41.274Z,23.95
2023-01-09T18:51:43.978Z,21.40
2023-01-09T18:54:46.364Z,20.50
2023-01-09T18:57:49.015Z,21.25
2023-01-09T19:00:55.172Z,18.42
2023-01-09T19:03:59.748Z,16.87
2023-01-09T19:07:02.166Z,18.38
2023-01-09T19:10:05.069Z,15.45
2023-01-09T19:13:07.409Z,17.25
2023-01-09T19:16:10.590Z,16.30
2023-01-09T19:19:13.341Z,16.02
2023-01-09T19:22:15.856Z,15.48
2023-01-09T19:25:18.225Z,14.97
2023-01-09T19:28:21.606Z,15.18
2023-01-09T19:31:26.417Z,15.77
2023-01-09T19:34:28.922Z,16.87
2023-01-09T19:37:31.339Z,17.42
2023-01-09T19:40:33.897Z,17.15
2023-01-09T19:43:37.214Z,17.63
2023-01-09T19:46:40.044Z,19.05
2023-01-09T19:49:42.694Z,19.63
2023-01-09T19:52:45.485Z,18.60
2023-01-09T19:55:47.837Z,17.90
2023-01-09T19:58:51.414Z,16.60
2023-01-09T20:01:55.275Z,19.10
2023-01-09T20:04:58.298Z,17.93
2023-01-09T20:08:03.463Z,16.98
2023-01-09T20:11:08.908Z,16.02
2023-01-09T20:14:16.166Z,18.27
2023-01-09T20:17:19.757Z,17.83
2023-01-09T20:20:22.673Z,16.13
2023-01-09T20:23:32.366Z,17.98
2023-01-09T20:26:36.697Z,16.90
2023-01-09T20:29:39.345Z,16.50
2023-01-09T20:32:42.376Z,19.40
2023-01-09T20:35:44.885Z,18.17
2023-01-09T20:38:47.583Z,17.95
2023-01-09T20:41:49.961Z,17.75
2023-01-09T20:44:52.319Z,16.85
2023-01-09T20:47:54.824Z,16.35
2023-01-09T20:51:03.723Z,15.38
2023-01-09T20:54:06.144Z,15.18
2023-01-09T20:57:08.500Z,13.40
2023-01-09T21:00:11.850Z,12.07
2023-01-09T21:03:16.642Z,13.13
2023-01-09T21:06:20.729Z,11.83
2023-01-09T21:09:25.296Z,11.43
2023-01-09T21:12:28.613Z,13.82
2023-01-09T21:15:30.969Z,11.27
2023-01-09T21:18:33.695Z,11.73
2023-01-09T21:21:36.203Z,12.65
2023-01-09T21:24:38.685Z,12.70
2023-01-09T21:27:50.269Z,12.53
2023-01-09T21:30:54.177Z,14.00
2023-01-09T21:33:56.663Z,13.40
2023-01-09T21:36:59.091Z,13.17
2023-01-09T21:40:02.368Z,11.30
2023-01-09T21:43:23.168Z,11.38
2023-01-09T21:46:43.933Z,10.65
2023-01-09T21:49:46.428Z,10.48
2023-01-09T21:52:48.813Z,9.10
2023-01-09T21:55:51.138Z,9.07
2023-01-09T21:58:53.675Z,10.00
2023-01-09T22:01:56.341Z,9.27
2023-01-09T22:05:00.239Z,9.88
2023-01-09T22:08:02.654Z,8.40
2023-01-09T22:11:05.422Z,9.55
2023-01-09T22:14:11.339Z,8.50
2023-01-09T22:17:13.699Z,8.20
2023-01-09T22:20:16.181Z,9.48
2023-01-09T22:23:18.686Z,10.35
2023-01-09T22:26:21.318Z,8.52
2023-01-09T22:29:24.208Z,8.80
2023-01-09T22:32:26.605Z,8.80
2023-01-09T22:35:29.165Z,8.43
2023-01-09T22:38:31.873Z,8.77
2023-01-09T22:41:34.289Z,9.07
2023-01-09T22:44:36.643Z,10.30
2023-01-09T22:47:39.056Z,9.32
2023-01-09T22:50:41.404Z,10.23
2023-01-09T22:53:45.249Z,10.57
2023-01-09T22:56:49.642Z,9.90
2023-01-09T22:59:52.045Z,11.57
2023-01-09T23:02:54.525Z,10.18
2023-01-09T23:06:01.606Z,10.30
2023-01-09T23:09:04.025Z,9.97
2023-01-09T23:12:06.809Z,9.30
2023-01-09T23:15:09.561Z,10.00
2023-01-09T23:18:12.135Z,9.38
2023-01-09T23:21:14.483Z,10.27
2023-01-09T23:24:18.418Z,10.68
2023-01-09T23:27:20.811Z,10.27
2023-01-09T23:30:23.349Z,10.27
2023-01-09T23:33:25.824Z,9.30
2023-01-09T23:36:28.173Z,10.30
2023-01-09T23:39:30.626Z,10.63
2023-01-09T23:42:51.418Z,9.75
2023-01-09T23:45:53.953Z,9.88
2023-01-09T23:48:56.386Z,9.73
2023-01-09T23:52:01.613Z,10.40
2023-01-09T23:55:04.309Z,9.63
2023-01-09T23:58:07.555Z,11.18
